Time;durP1;ratioP1;P1;durP2;ratioP2;P2;SDS_P1;SDS_P2;PMS_P1;PMS_P2;Temp;Humidity;BMP_temperature;BMP_pressure;BME280_temperature;BME280_humidity;BME280_pressure;Samples;Min_cycle;Max_cycle;Signal;HPM_P1;HPM_P2
2023/12/20 00:01:32;;;;;;;1.10;1.00;;;6.90;99.90;;;;;;5116053;28;20043;-71
2023/12/20 00:03:58;;;;;;;1.10;1.00;;;5.70;99.90;;;;;;5115808;28;20085;-73
2023/12/20 00:06:23;;;;;;;1.88;1.48;;;5.70;99.90;;;;;;5115825;28;20035;-73
2023/12/20 00:08:49;;;;;;;1.10;1.00;;;5.70;99.90;;;;;;5115553;28;20039;-71
2023/12/20 00:11:15;;;;;;;1.20;1.10;;;5.70;99.90;;;;;;5115958;28;20443;-72
2023/12/20 00:13:40;;;;;;;1.02;1.00;;;5.70;99.90;;;;;;5115740;28;20051;-73
2023/12/20 00:16:06;;;;;;;1.63;1.40;;;5.70;99.90;;;;;;5115790;28;20047;-73
2023/12/20 00:18:31;;;;;;;1.08;1.00;;;5.70;99.90;;;;;;5115891;28;20092;-71
2023/12/20 00:20:57;;;;;;;0.90;0.90;;;5.80;99.90;;;;;;5115610;28;20039;-73
2023/12/20 00:23:23;;;;;;;0.90;0.90;;;5.80;99.90;;;;;;5115708;28;20039;-73
2023/12/20 00:25:49;;;;;;;1.00;1.00;;;5.80;99.90;;;;;;5115970;28;20451;-72
2023/12/20 00:28:14;;;;;;;1.10;1.00;;;5.80;99.90;;;;;;5115629;28;20086;-73
2023/12/20 00:30:40;;;;;;;2.88;1.00;;;5.80;99.90;;;;;;5115575;28;20042;-73
2023/12/20 00:33:05;;;;;;;0.90;0.90;;;5.80;99.90;;;;;;5115600;28;20040;-71
2023/12/20 00:35:31;;;;;;;0.98;0.98;;;5.70;99.90;;;;;;5115323;28;20363;-70
2023/12/20 00:37:57;;;;;;;0.90;0.90;;;5.70;99.90;;;;;;5115340;28;20075;-70
2023/12/20 00:40:23;;;;;;;1.10;1.00;;;5.70;99.90;;;;;;5115695;28;20044;-70
2023/12/20 00:42:52;;;;;;;1.10;1.00;;;5.60;99.90;;;;;;5115361;28;20046;-73
2023/12/20 00:45:18;;;;;;;1.10;1.00;;;5.60;99.90;;;;;;5115148;28;20036;-71
2023/12/20 00:47:44;;;;;;;1.10;1.00;;;5.60;99.90;;;;;;5115165;28;20118;-71
2023/12/20 00:50:09;;;;;;;1.10;1.00;;;5.50;99.90;;;;;;5115208;28;20043;-71
2023/12/20 00:52:35;;;;;;;0.90;0.90;;;5.50;99.90;;;;;;5115023;28;20122;-72
2023/12/20 00:55:00;;;;;;;1.10;1.00;;;5.40;99.90;;;;;;5115142;27;20513;-72
2023/12/20 00:57:26;;;;;;;0.90;0.90;;;5.40;99.90;;;;;;5114828;28;20035;-72
2023/12/20 00:59:52;;;;;;;1.33;1.23;;;5.40;99.90;;;;;;5114861;28;20074;-72
2023/12/20 01:02:17;;;;;;;1.10;1.00;;;5.40;99.90;;;;;;5114975;28;20081;-72
2023/12/20 01:04:43;;;;;;;1.10;1.00;;;5.40;99.90;;;;;;5114466;28;20036;-72
2023/12/20 01:07:09;;;;;;;1.10;1.00;;;5.40;99.90;;;;;;5114849;28;20075;-71
2023/12/20 01:09:34;;;;;;;1.00;0.90;;;5.40;99.90;;;;;;5113630;28;20126;-74
2023/12/20 01:12:00;;;;;;;1.10;1.00;;;5.40;99.90;;;;;;5115019;28;20039;-72
2023/12/20 01:14:25;;;;;;;1.55;1.40;;;5.40;99.90;;;;;;5114803;28;20032;-71
2023/12/20 01:16:51;;;;;;;1.10;1.00;;;5.30;99.90;;;;;;5114246;28;20040;-72
2023/12/20 01:19:16;;;;;;;1.10;1.00;;;5.30;99.90;;;;;;5114422;28;20039;-74
2023/12/20 01:21:42;;;;;;;0.90;0.90;;;5.30;99.90;;;;;;5114642;28;20128;-74
2023/12/20 01:24:08;;;;;;;1.20;1.10;;;5.30;99.90;;;;;;5114571;28;20039;-71
2023/12/20 01:26:33;;;;;;;1.10;1.00;;;5.30;99.90;;;;;;5114451;28;20470;-73
2023/12/20 01:28:59;;;;;;;1.10;1.00;;;6.40;99.90;;;;;;5114778;28;20042;-73
2023/12/20 01:31:24;;;;;;;0.90;0.90;;;5.30;99.90;;;;;;5114387;28;20038;-72
2023/12/20 01:33:50;;;;;;;1.10;1.00;;;5.30;99.90;;;;;;5114510;28;20043;-73
2023/12/20 01:36:15;;;;;;;1.10;1.00;;;5.30;99.90;;;;;;5114295;28;20039;-72
2023/12/20 01:38:41;;;;;;;0.90;0.90;;;5.20;99.90;;;;;;5114360;28;20039;-70
2023/12/20 01:41:07;;;;;;;1.10;1.00;;;5.20;99.90;;;;;;5114330;28;20050;-73
2023/12/20 01:43:32;;;;;;;1.10;1.00;;;5.20;99.90;;;;;;5114336;28;20047;-71
2023/12/20 01:45:58;;;;;;;1.00;0.90;;;5.20;99.90;;;;;;5113921;28;20036;-72
2023/12/20 01:48:25;;;;;;;1.10;1.00;;;5.20;99.90;;;;;;5114226;28;20031;-72
2023/12/20 01:50:52;;;;;;;0.90;0.90;;;5.20;99.90;;;;;;5114055;28;20463;-72
2023/12/20 01:53:20;;;;;;;0.90;0.90;;;5.10;99.90;;;;;;5114597;28;20049;-71
2023/12/20 01:55:47;;;;;;;0.90;0.90;;;5.10;99.90;;;;;;5114498;28;20055;-70
2023/12/20 01:58:14;;;;;;;0.90;0.90;;;5.10;99.90;;;;;;5113823;28;20074;-73
2023/12/20 02:00:40;;;;;;;0.80;0.80;;;5.10;99.90;;;;;;5114077;28;20047;-71
2023/12/20 02:03:06;;;;;;;0.90;0.90;;;5.60;99.90;;;;;;5113935;28;20368;-72
2023/12/20 02:05:33;;;;;;;1.02;1.00;;;5.20;99.90;;;;;;5113498;28;20051;-73
2023/12/20 02:07:59;;;;;;;0.98;0.98;;;5.20;99.90;;;;;;5112779;28;20140;-70
2023/12/20 02:10:25;;;;;;;0.98;0.95;;;6.20;99.90;;;;;;5114313;28;20071;-71
2023/12/20 02:12:51;;;;;;;1.10;1.00;;;5.20;99.90;;;;;;5114061;28;20147;-71
2023/12/20 02:15:17;;;;;;;1.10;1.00;;;5.10;99.90;;;;;;5114110;28;20130;-71
2023/12/20 02:17:43;;;;;;;1.10;1.00;;;5.60;99.90;;;;;;5112640;28;20056;-71
2023/12/20 02:20:09;;;;;;;1.10;1.00;;;5.20;99.90;;;;;;5113814;28;20168;-71
2023/12/20 02:22:35;;;;;;;1.10;1.00;;;5.10;99.90;;;;;;5114541;28;20530;-71
2023/12/20 02:25:01;;;;;;;1.20;1.10;;;5.20;99.90;;;;;;5113816;28;20463;-70
2023/12/20 02:27:27;;;;;;;1.00;1.00;;;5.20;99.90;;;;;;5113488;28;20069;-72
2023/12/20 02:29:53;;;;;;;1.10;1.00;;;5.20;99.90;;;;;;5113935;28;20043;-73
2023/12/20 02:32:20;;;;;;;1.10;1.00;;;5.20;99.90;;;;;;5115733;28;20046;-72
2023/12/20 02:34:47;;;;;;;0.90;0.90;;;5.20;99.90;;;;;;5117734;27;20039;-71
2023/12/20 02:37:13;;;;;;;0.95;0.90;;;5.20;99.90;;;;;;5117787;28;20059;-70
2023/12/20 02:39:38;;;;;;;1.10;1.00;;;5.30;99.90;;;;;;5117391;28;20044;-72
2023/12/20 02:42:04;;;;;;;1.10;1.00;;;5.30;99.90;;;;;;5117683;28;20036;-70
2023/12/20 02:44:30;;;;;;;0.90;0.90;;;5.30;99.90;;;;;;5117690;28;20471;-73
2023/12/20 02:46:55;;;;;;;1.10;1.00;;;5.30;99.90;;;;;;5117438;28;20324;-71
2023/12/20 02:49:21;;;;;;;0.90;0.90;;;5.40;99.90;;;;;;5117447;28;20126;-73
2023/12/20 02:51:47;;;;;;;1.30;1.20;;;5.40;99.90;;;;;;5117369;28;20042;-72
2023/12/20 02:54:12;;;;;;;0.90;0.90;;;6.00;99.90;;;;;;5117351;28;20078;-72
2023/12/20 02:56:38;;;;;;;1.20;1.10;;;5.40;99.90;;;;;;5117366;28;20080;-73
2023/12/20 02:59:05;;;;;;;0.90;0.90;;;5.40;99.90;;;;;;5117180;28;20166;-71
2023/12/20 03:01:31;;;;;;;0.90;0.90;;;5.40;99.90;;;;;;5117139;28;20047;-71
2023/12/20 03:03:57;;;;;;;0.90;0.90;;;5.40;99.90;;;;;;5117145;28;20075;-72
2023/12/20 03:06:23;;;;;;;1.10;1.00;;;5.40;99.90;;;;;;5117116;28;20074;-73
2023/12/20 03:08:48;;;;;;;0.90;0.90;;;5.50;99.90;;;;;;5117154;28;20042;-72
2023/12/20 03:11:14;;;;;;;0.90;0.90;;;5.50;99.90;;;;;;5117315;28;20039;-71
2023/12/20 03:13:39;;;;;;;0.90;0.90;;;5.50;99.90;;;;;;5117006;28;20039;-70
2023/12/20 03:16:09;;;;;;;1.10;1.00;;;5.50;99.90;;;;;;5117211;28;20035;-72
2023/12/20 03:18:35;;;;;;;0.93;0.90;;;5.50;99.90;;;;;;5116988;28;20055;-73
2023/12/20 03:21:00;;;;;;;1.08;0.98;;;5.50;99.90;;;;;;5116903;28;20135;-71
2023/12/20 03:23:27;;;;;;;0.90;0.90;;;5.50;99.90;;;;;;5116956;28;20043;-72
2023/12/20 03:25:52;;;;;;;0.90;0.90;;;5.60;99.90;;;;;;5117209;28;20039;-71
2023/12/20 03:28:19;;;;;;;1.10;1.00;;;5.60;99.90;;;;;;5116946;27;20050;-72
2023/12/20 03:30:44;;;;;;;0.90;0.90;;;5.60;99.90;;;;;;5116841;28;20096;-72
2023/12/20 03:33:10;;;;;;;1.10;1.00;;;5.60;99.90;;;;;;5116574;28;20035;-72
2023/12/20 03:35:36;;;;;;;0.90;0.90;;;5.60;99.90;;;;;;5116578;28;20095;-71
2023/12/20 03:38:01;;;;;;;1.00;0.95;;;5.60;99.90;;;;;;5116517;28;20495;-71
2023/12/20 03:40:27;;;;;;;0.93;0.90;;;5.60;99.90;;;;;;5116457;28;20371;-73
2023/12/20 03:42:53;;;;;;;3.25;2.78;;;5.60;99.90;;;;;;5115510;28;20081;-72
2023/12/20 03:45:18;;;;;;;1.10;1.00;;;5.60;99.90;;;;;;5115956;28;20035;-70
2023/12/20 03:47:44;;;;;;;1.10;1.00;;;5.60;99.90;;;;;;5116323;28;20043;-70
2023/12/20 03:50:09;;;;;;;1.10;1.00;;;7.00;99.90;;;;;;5115998;28;20043;-73
2023/12/20 03:52:35;;;;;;;1.05;0.95;;;5.50;99.90;;;;;;5116389;28;20421;-72
2023/12/20 03:55:00;;;;;;;1.52;1.42;;;5.50;99.90;;;;;;5116220;28;20073;-72
2023/12/20 03:57:26;;;;;;;1.10;1.00;;;5.40;99.90;;;;;;5116465;27;20044;-71
2023/12/20 03:59:52;;;;;;;0.90;0.90;;;5.40;99.90;;;;;;5116188;28;20089;-71
2023/12/20 04:02:17;;;;;;;1.10;1.00;;;5.40;99.90;;;;;;5115809;28;20035;-71
2023/12/20 04:04:43;;;;;;;1.10;1.00;;;5.40;99.90;;;;;;5115828;28;20137;-73
2023/12/20 04:07:09;;;;;;;0.95;0.95;;;5.40;99.90;;;;;;5116480;27;20079;-71
2023/12/20 04:09:34;;;;;;;1.10;1.00;;;5.40;99.90;;;;;;5116007;28;20394;-73
2023/12/20 04:12:00;;;;;;;1.10;1.00;;;5.40;99.90;;;;;;5115999;28;20047;-70
2023/12/20 04:14:25;;;;;;;0.95;0.95;;;5.50;99.90;;;;;;5114604;28;20521;-71
2023/12/20 04:16:52;;;;;;;0.93;0.90;;;5.50;99.90;;;;;;5115759;28;20075;-73
2023/12/20 04:19:17;;;;;;;1.10;1.00;;;5.60;99.90;;;;;;5115827;28;20086;-72
2023/12/20 04:21:43;;;;;;;1.10;1.00;;;6.10;99.90;;;;;;5115725;28;20075;-70
2023/12/20 04:24:08;;;;;;;1.10;1.00;;;5.50;99.90;;;;;;5115632;28;20122;-70
2023/12/20 04:26:34;;;;;;;0.90;0.90;;;5.50;99.90;;;;;;5116015;28;20039;-71
2023/12/20 04:28:59;;;;;;;1.00;0.98;;;5.60;99.90;;;;;;5115546;28;20075;-73
2023/12/20 04:31:25;;;;;;;0.80;0.80;;;5.60;99.90;;;;;;5115492;28;20084;-71
2023/12/20 04:33:51;;;;;;;0.80;0.80;;;5.60;99.90;;;;;;5115472;28;20035;-71
2023/12/20 04:36:16;;;;;;;0.80;0.80;;;5.60;99.90;;;;;;5115421;28;20485;-72
2023/12/20 04:38:42;;;;;;;0.80;0.80;;;6.40;99.90;;;;;;5115142;28;20039;-72
2023/12/20 04:41:07;;;;;;;0.80;0.80;;;5.60;99.90;;;;;;5115357;28;20047;-72
2023/12/20 04:43:33;;;;;;;0.80;0.80;;;5.60;99.90;;;;;;5115503;28;20123;-73
2023/12/20 04:45:59;;;;;;;0.80;0.80;;;5.70;99.90;;;;;;5115122;28;20031;-72
2023/12/20 04:48:24;;;;;;;1.40;1.30;;;5.70;99.90;;;;;;5114825;28;20043;-73
2023/12/20 04:50:50;;;;;;;0.90;0.90;;;5.70;99.90;;;;;;5114790;28;20045;-72
2023/12/20 04:53:15;;;;;;;0.85;0.85;;;5.70;99.90;;;;;;5115146;28;20036;-71
2023/12/20 04:55:41;;;;;;;0.80;0.80;;;5.70;99.90;;;;;;5114621;28;20035;-71
2023/12/20 04:58:06;;;;;;;0.90;0.90;;;5.70;99.90;;;;;;5115297;28;20071;-72
2023/12/20 05:00:32;;;;;;;0.90;0.90;;;5.70;99.90;;;;;;5114967;28;20093;-71
2023/12/20 05:02:58;;;;;;;1.10;1.00;;;5.70;99.90;;;;;;5114901;28;20118;-72
2023/12/20 05:05:23;;;;;;;0.90;0.90;;;5.70;99.90;;;;;;5114750;28;20035;-72
2023/12/20 05:07:49;;;;;;;0.80;0.80;;;5.70;99.90;;;;;;5114812;28;20039;-72
2023/12/20 05:10:14;;;;;;;0.80;0.80;;;5.80;99.90;;;;;;5114797;28;20394;-73
2023/12/20 05:12:40;;;;;;;6.80;3.17;;;5.80;99.90;;;;;;5114991;28;20028;-74
2023/12/20 05:15:06;;;;;;;0.90;0.90;;;5.80;99.90;;;;;;5114380;28;20126;-71
2023/12/20 05:17:32;;;;;;;1.00;0.90;;;5.80;99.90;;;;;;5114728;28;20192;-73
2023/12/20 05:19:57;;;;;;;0.93;0.93;;;5.90;99.90;;;;;;5114431;28;20130;-71
2023/12/20 05:22:23;;;;;;;2.35;1.00;;;5.90;99.90;;;;;;5114980;28;20122;-71
2023/12/20 05:24:49;;;;;;;0.90;0.90;;;6.00;99.90;;;;;;5114274;28;20032;-71
2023/12/20 05:27:14;;;;;;;0.90;0.90;;;5.90;99.90;;;;;;5114503;28;20043;-74
2023/12/20 05:29:40;;;;;;;0.90;0.90;;;6.00;99.90;;;;;;5114299;28;20035;-71
2023/12/20 05:32:06;;;;;;;0.90;0.90;;;5.90;99.90;;;;;;5114377;28;20039;-71
2023/12/20 05:34:31;;;;;;;1.42;1.33;;;6.00;99.90;;;;;;5114363;28;20479;-71
2023/12/20 05:36:58;;;;;;;0.90;0.90;;;6.00;99.90;;;;;;5114360;28;20089;-73
2023/12/20 05:39:23;;;;;;;0.90;0.90;;;6.00;99.90;;;;;;5114592;28;20034;-77
2023/12/20 05:41:49;;;;;;;1.10;1.00;;;6.20;99.90;;;;;;5114288;28;20043;-72
2023/12/20 05:44:14;;;;;;;1.10;1.00;;;6.00;99.90;;;;;;5114256;28;20055;-71
2023/12/20 05:46:40;;;;;;;0.90;0.90;;;6.00;99.90;;;;;;5113088;28;20067;-73
2023/12/20 05:49:06;;;;;;;1.05;0.98;;;6.10;99.90;;;;;;5114139;28;20089;-73
2023/12/20 05:51:32;;;;;;;1.33;1.23;;;6.10;99.90;;;;;;5110168;28;20044;-72
2023/12/20 05:53:58;;;;;;;1.10;1.00;;;6.10;99.90;;;;;;5093814;28;20038;-72
2023/12/20 05:56:24;;;;;;;1.13;1.03;;;6.10;99.90;;;;;;5093777;28;20047;-72
2023/12/20 05:58:50;;;;;;;0.90;0.90;;;;;;;;;;5093666;28;20032;-73
2023/12/20 06:01:19;;;;;;;1.38;1.27;;;6.10;99.90;;;;;;5093795;28;20036;-74
2023/12/20 06:03:45;;;;;;;0.90;0.90;;;6.10;99.90;;;;;;5093640;28;20032;-72
2023/12/20 06:06:12;;;;;;;0.90;0.90;;;6.10;99.90;;;;;;5093689;28;20043;-74
2023/12/20 06:08:38;;;;;;;0.90;0.90;;;6.10;99.90;;;;;;5097969;28;20132;-74
2023/12/20 06:11:05;;;;;;;0.90;0.90;;;6.10;99.90;;;;;;5097893;28;20036;-71
2023/12/20 06:13:31;;;;;;;1.00;0.95;;;6.10;99.90;;;;;;5097874;28;20044;-73
2023/12/20 06:15:57;;;;;;;0.90;0.90;;;6.20;99.90;;;;;;5097819;28;20375;-72
2023/12/20 06:18:22;;;;;;;1.02;0.93;;;6.20;99.90;;;;;;5097862;28;20051;-71
2023/12/20 06:20:48;;;;;;;0.90;0.90;;;6.70;99.90;;;;;;5097710;28;20056;-72
2023/12/20 06:23:14;;;;;;;0.90;0.90;;;6.20;99.90;;;;;;5098089;28;20076;-74
2023/12/20 06:25:39;;;;;;;1.30;1.20;;;7.10;99.90;;;;;;5097779;28;20119;-71
2023/12/20 06:28:06;;;;;;;1.75;1.63;;;6.20;99.90;;;;;;5097624;28;20039;-73
2023/12/20 06:30:32;;;;;;;0.90;0.90;;;6.20;99.90;;;;;;5097644;28;20039;-71
2023/12/20 06:32:58;;;;;;;1.30;1.20;;;6.30;99.90;;;;;;5097141;28;20044;-72
2023/12/20 06:35:24;;;;;;;1.08;1.00;;;6.30;99.90;;;;;;5097129;28;20062;-72
2023/12/20 06:37:49;;;;;;;1.30;1.20;;;6.30;99.90;;;;;;5097299;28;20078;-70
2023/12/20 06:40:15;;;;;;;0.90;0.90;;;6.30;99.90;;;;;;5097443;28;20052;-75
2023/12/20 06:42:41;;;;;;;0.90;0.90;;;6.40;99.90;;;;;;5097222;28;20071;-76
2023/12/20 06:45:07;;;;;;;0.90;0.90;;;6.40;99.90;;;;;;5097327;28;20375;-73
2023/12/20 06:47:33;;;;;;;1.90;1.80;;;6.30;99.90;;;;;;5097107;28;20379;-73
2023/12/20 06:49:58;;;;;;;1.10;1.00;;;6.40;99.90;;;;;;5096919;28;20130;-75
2023/12/20 06:52:24;;;;;;;1.05;0.95;;;6.40;99.90;;;;;;5097077;28;20052;-70
2023/12/20 06:54:49;;;;;;;0.95;0.95;;;6.40;99.90;;;;;;5097050;28;20460;-71
2023/12/20 06:57:15;;;;;;;0.90;0.90;;;6.40;99.90;;;;;;5097046;28;20044;-71
2023/12/20 06:59:41;;;;;;;2.83;2.65;;;6.40;99.90;;;;;;5096851;28;20118;-71
2023/12/20 07:02:07;;;;;;;1.00;1.00;;;6.40;99.90;;;;;;5096656;28;20032;-76
2023/12/20 07:04:33;;;;;;;0.98;0.98;;;6.50;99.90;;;;;;5096735;28;20056;-74
2023/12/20 07:07:00;;;;;;;1.10;1.00;;;6.40;99.90;;;;;;5096802;28;20036;-72
2023/12/20 07:09:26;;;;;;;1.10;1.00;;;6.50;99.90;;;;;;5096769;28;20059;-69
2023/12/20 07:11:52;;;;;;;1.10;1.00;;;6.50;99.90;;;;;;5096804;28;20051;-69
2023/12/20 07:14:18;;;;;;;1.10;1.00;;;6.50;99.90;;;;;;5096717;28;20526;-75
2023/12/20 07:16:43;;;;;;;1.00;0.90;;;6.50;99.90;;;;;;5096565;28;20036;-74
2023/12/20 07:19:09;;;;;;;1.05;0.98;;;6.50;99.90;;;;;;5096270;28;20077;-70
2023/12/20 07:21:35;;;;;;;0.90;0.90;;;6.50;99.90;;;;;;5096420;28;20043;-71
2023/12/20 07:24:00;;;;;;;1.10;1.00;;;6.50;99.90;;;;;;5096844;28;20078;-70
2023/12/20 07:26:26;;;;;;;1.05;0.98;;;6.50;99.90;;;;;;5096318;28;20475;-74
2023/12/20 07:28:51;;;;;;;1.17;1.08;;;6.50;99.90;;;;;;5096722;28;20040;-73
2023/12/20 07:31:17;;;;;;;1.00;0.98;;;6.50;99.90;;;;;;5096364;28;20044;-76
2023/12/20 07:33:43;;;;;;;0.90;0.90;;;6.60;99.90;;;;;;5096559;28;20044;-72
2023/12/20 07:36:09;;;;;;;1.10;1.00;;;6.50;99.90;;;;;;5094576;28;20043;-71
2023/12/20 07:38:35;;;;;;;0.93;0.93;;;6.50;99.90;;;;;;5095906;28;20088;-72
2023/12/20 07:41:00;;;;;;;1.08;1.00;;;6.60;99.90;;;;;;5095947;28;20456;-72
2023/12/20 07:43:26;;;;;;;1.02;0.95;;;7.50;99.90;;;;;;5095850;28;20044;-73
2023/12/20 07:45:51;;;;;;;1.58;1.48;;;6.60;99.90;;;;;;5095888;28;20040;-74
2023/12/20 07:48:17;;;;;;;1.02;0.93;;;7.40;99.90;;;;;;5095469;28;20036;-73
2023/12/20 07:50:42;;;;;;;1.38;1.27;;;6.60;99.90;;;;;;5096034;28;20132;-73
2023/12/20 07:53:08;;;;;;;1.10;1.00;;;6.60;99.90;;;;;;5095760;28;20094;-73
2023/12/20 07:55:34;;;;;;;1.10;1.00;;;6.60;99.90;;;;;;5095706;28;20035;-75
2023/12/20 07:58:00;;;;;;;1.10;1.00;;;6.70;99.90;;;;;;5095825;28;20485;-72
2023/12/20 08:00:26;;;;;;;1.10;1.00;;;6.70;99.90;;;;;;5095470;28;20081;-71
2023/12/20 08:02:52;;;;;;;1.10;1.00;;;6.70;99.90;;;;;;5095023;28;20395;-74
2023/12/20 08:05:18;;;;;;;1.20;1.10;;;6.70;99.90;;;;;;5095551;28;20036;-71
2023/12/20 08:07:43;;;;;;;1.10;1.00;;;6.70;99.90;;;;;;5095547;28;20127;-73
2023/12/20 08:10:09;;;;;;;1.10;1.00;;;6.70;99.90;;;;;;5095629;28;20074;-74
2023/12/20 08:12:35;;;;;;;2.08;1.55;;;6.70;99.90;;;;;;5095578;28;20047;-72
2023/12/20 08:15:02;;;;;;;0.90;0.90;;;6.70;99.90;;;;;;5095352;28;20082;-73
2023/12/20 08:17:27;;;;;;;1.10;1.00;;;6.70;99.90;;;;;;5094859;28;20097;-74
2023/12/20 08:19:53;;;;;;;1.67;1.25;;;7.00;99.90;;;;;;5095209;28;20044;-75
2023/12/20 08:22:18;;;;;;;1.10;1.00;;;6.70;99.90;;;;;;5095306;28;20040;-73
2023/12/20 08:24:44;;;;;;;1.10;1.00;;;6.70;99.90;;;;;;5095013;28;20105;-75
2023/12/20 08:27:10;;;;;;;0.90;0.90;;;6.80;99.90;;;;;;5094934;28;20082;-80
2023/12/20 08:29:36;;;;;;;1.20;1.10;;;6.80;99.90;;;;;;5094522;28;20039;-74
2023/12/20 08:32:01;;;;;;;1.08;1.00;;;7.10;99.90;;;;;;5094829;28;20044;-73
2023/12/20 08:34:27;;;;;;;1.10;1.00;;;6.80;99.90;;;;;;5094548;28;20032;-74
2023/12/20 08:36:53;;;;;;;0.90;0.90;;;6.80;99.90;;;;;;5094811;28;20076;-73
2023/12/20 08:39:18;;;;;;;1.25;1.15;;;7.30;99.90;;;;;;5094720;28;20080;-77
2023/12/20 08:41:44;;;;;;;1.00;1.00;;;6.90;99.90;;;;;;5094944;28;20032;-79
2023/12/20 08:44:10;;;;;;;1.98;1.80;;;6.90;99.90;;;;;;5094748;28;20044;-73
2023/12/20 08:46:35;;;;;;;1.35;1.27;;;7.90;99.90;;;;;;5094447;28;20040;-75
2023/12/20 08:49:02;;;;;;;1.10;1.00;;;6.90;99.90;;;;;;5094520;28;20063;-71
2023/12/20 08:51:27;;;;;;;0.97;0.90;;;7.70;99.90;;;;;;5094170;28;20487;-74
2023/12/20 08:53:53;;;;;;;0.98;0.90;;;7.00;99.90;;;;;;5094698;28;20118;-73
2023/12/20 08:56:19;;;;;;;0.90;0.90;;;7.00;99.90;;;;;;5094384;28;20135;-73
2023/12/20 08:58:46;;;;;;;0.98;0.90;;;7.00;99.90;;;;;;5092678;28;20122;-73
2023/12/20 09:01:12;;;;;;;;;;;7.30;99.90;;;;;;5093134;28;20050;-73
2023/12/20 09:03:39;;;;;;;37.90;2.65;;;7.10;99.90;;;;;;5092712;28;19916;-71
2023/12/20 09:06:05;;;;;;;;;;;7.10;99.90;;;;;;5093469;28;20105;-71
2023/12/20 09:08:31;;;;;;;1.10;1.00;;;7.10;99.90;;;;;;5093144;28;20615;-72
2023/12/20 09:10:59;;;;;;;1.10;1.00;;;7.90;99.90;;;;;;5093228;28;20028;-71
2023/12/20 09:13:28;;;;;;;1.02;1.00;;;7.20;99.90;;;;;;5094097;28;20043;-74
2023/12/20 09:16:00;;;;;;;1.00;0.90;;;8.20;99.90;;;;;;5093880;28;20426;-71
2023/12/20 09:18:25;;;;;;;1.00;0.90;;;7.30;99.90;;;;;;5094192;28;20357;-72
2023/12/20 09:20:51;;;;;;;1.50;1.40;;;7.20;99.90;;;;;;5094250;28;20042;-74
2023/12/20 09:23:18;;;;;;;1.10;1.00;;;8.30;99.90;;;;;;5093971;28;20042;-75
2023/12/20 09:25:44;;;;;;;0.90;0.90;;;8.00;99.90;;;;;;5094213;28;20044;-74
2023/12/20 09:28:09;;;;;;;1.52;1.42;;;7.40;99.90;;;;;;5094025;28;20035;-73
2023/12/20 09:30:39;;;;;;;0.90;0.90;;;7.30;99.90;;;;;;5093845;28;20047;-71
2023/12/20 09:33:06;;;;;;;0.90;0.90;;;7.30;99.90;;;;;;5093981;28;20075;-74
2023/12/20 09:35:32;;;;;;;1.02;0.98;;;7.80;99.90;;;;;;5093868;28;20044;-72
2023/12/20 09:37:58;;;;;;;1.10;1.00;;;8.30;99.90;;;;;;5093875;28;20040;-73
2023/12/20 09:40:26;;;;;;;2.20;2.00;;;7.50;99.90;;;;;;5093528;28;20047;-74
2023/12/20 09:43:00;;;;;;;1.10;1.00;;;7.50;99.90;;;;;;5093883;28;20105;-72
2023/12/20 09:45:26;;;;;;;2.05;1.45;;;7.80;99.90;;;;;;5093468;28;20036;-75
2023/12/20 09:47:54;;;;;;;1.85;1.75;;;7.50;99.90;;;;;;5093729;28;20040;-72
2023/12/20 09:50:22;;;;;;;1.00;0.90;;;7.60;99.90;;;;;;5093729;28;20062;-74
2023/12/20 09:52:53;;;;;;;1.48;1.38;;;7.60;99.90;;;;;;5093542;28;20118;-74
2023/12/20 09:55:20;;;;;;;1.10;1.00;;;7.70;99.90;;;;;;5093713;28;20075;-74
2023/12/20 09:57:46;;;;;;;1.10;1.00;;;7.70;99.90;;;;;;5093659;28;20036;-72
2023/12/20 10:00:13;;;;;;;1.20;1.10;;;7.70;99.90;;;;;;5092985;28;20143;-72
2023/12/20 10:02:45;;;;;;;2.85;2.65;;;7.80;99.90;;;;;;5093474;28;20036;-72
2023/12/20 10:05:18;;;;;;;0.90;0.90;;;8.50;99.90;;;;;;5093546;28;20050;-72
2023/12/20 10:07:45;;;;;;;1.10;1.00;;;7.70;99.90;;;;;;5093389;28;20047;-74
2023/12/20 10:10:13;;;;;;;1.10;1.00;;;7.60;99.90;;;;;;5093788;28;20040;-74
2023/12/20 10:12:38;;;;;;;1.10;1.00;;;7.40;99.90;;;;;;5092947;28;20578;-71
2023/12/20 10:15:05;;;;;;;1.35;1.25;;;7.30;99.90;;;;;;5093541;28;20044;-74
2023/12/20 10:17:31;;;;;;;1.10;1.00;;;7.10;99.90;;;;;;5093536;28;20063;-73
2023/12/20 10:19:58;;;;;;;1.10;1.00;;;7.00;99.90;;;;;;5093420;28;20035;-72
2023/12/20 10:22:24;;;;;;;1.10;1.00;;;6.80;99.90;;;;;;5093686;28;20036;-73
2023/12/20 10:24:49;;;;;;;0.90;0.90;;;6.70;99.90;;;;;;5093109;28;20711;-73
2023/12/20 10:27:19;;;;;;;1.10;1.00;;;7.20;99.90;;;;;;5092696;28;20044;-73
2023/12/20 10:29:45;;;;;;;1.05;0.95;;;6.70;99.90;;;;;;5093345;28;20475;-72
2023/12/20 10:32:27;;;;;;;1.10;1.00;;;6.60;99.90;;;;;;5092989;28;20051;-72
2023/12/20 10:34:54;;;;;;;0.95;0.93;;;6.50;99.90;;;;;;5093349;28;20040;-73
2023/12/20 10:37:20;;;;;;;1.63;1.00;;;6.50;99.90;;;;;;5092342;28;20051;-74
2023/12/20 10:39:56;;;;;;;1.10;1.00;;;6.60;99.90;;;;;;5093028;28;20059;-73
2023/12/20 10:42:22;;;;;;;0.90;0.90;;;6.40;99.90;;;;;;5093288;28;20090;-74
2023/12/20 10:44:49;;;;;;;1.10;1.00;;;6.40;99.90;;;;;;5093013;28;20036;-73
2023/12/20 10:47:16;;;;;;;1.20;1.10;;;6.80;99.90;;;;;;5093202;28;20040;-71
2023/12/20 10:49:42;;;;;;;1.20;1.10;;;6.50;99.90;;;;;;5093212;28;20075;-73
2023/12/20 10:52:08;;;;;;;0.90;0.90;;;6.40;99.90;;;;;;5093138;28;20040;-73
2023/12/20 10:54:34;;;;;;;1.10;1.00;;;6.40;99.90;;;;;;5096946;28;20040;-71
2023/12/20 10:57:04;;;;;;;1.10;1.00;;;6.40;99.90;;;;;;5096797;28;20044;-73
2023/12/20 10:59:32;;;;;;;1.60;1.33;;;6.40;99.90;;;;;;5096381;28;20044;-73
2023/12/20 11:02:00;;;;;;;1.10;1.00;;;6.40;99.90;;;;;;5096645;28;20044;-72
2023/12/20 11:04:59;;;;;;;0.90;0.90;;;6.40;99.90;;;;;;5096842;28;20043;-80
2023/12/20 11:07:28;;;;;;;0.90;0.90;;;6.50;99.90;;;;;;5096760;28;20048;-79
2023/12/20 11:10:15;;;;;;;0.90;0.90;;;6.50;99.90;;;;;;5099318;28;20047;-75
2023/12/20 11:13:00;;;;;;;1.10;1.00;;;6.50;99.90;;;;;;5096529;28;20044;-76
2023/12/20 11:15:27;;;;;;;1.10;1.00;;;6.50;99.90;;;;;;5096468;28;20390;-77
2023/12/20 11:17:56;;;;;;;1.00;0.90;;;6.50;99.90;;;;;;5096321;28;20051;-74
2023/12/20 11:20:24;;;;;;;0.90;0.90;;;6.60;99.90;;;;;;5096355;28;20040;-73
2023/12/20 11:22:54;;;;;;;1.10;1.00;;;6.60;99.90;;;;;;5096091;28;20479;-72
2023/12/20 11:25:20;;;;;;;1.05;1.00;;;6.60;99.90;;;;;;5096440;28;20089;-80
2023/12/20 11:28:09;;;;;;;0.90;0.90;;;6.80;99.90;;;;;;5096296;28;20634;-78
2023/12/20 11:30:54;;;;;;;1.10;1.00;;;6.60;99.90;;;;;;5096325;28;20494;-75
2023/12/20 11:33:29;;;;;;;1.10;1.00;;;6.60;99.90;;;;;;5096407;28;20036;-74
2023/12/20 11:35:59;;;;;;;0.88;0.88;;;6.60;99.90;;;;;;5095874;28;20036;-73
2023/12/20 11:38:25;;;;;;;0.90;0.90;;;6.70;99.90;;;;;;5096012;28;20033;-70
2023/12/20 11:40:54;;;;;;;0.93;0.93;;;7.70;99.90;;;;;;5095279;28;20048;-73
2023/12/20 11:43:35;;;;;;;1.10;1.00;;;6.70;99.90;;;;;;5095721;28;20040;-74
2023/12/20 11:46:09;;;;;;;0.90;0.90;;;6.70;99.90;;;;;;5096005;28;20119;-75
2023/12/20 11:48:40;;;;;;;1.05;0.98;;;6.80;99.90;;;;;;5095785;28;20044;-71
2023/12/20 11:51:12;;;;;;;0.98;0.90;;;7.40;99.90;;;;;;5094631;28;20379;-74
2023/12/20 11:53:38;;;;;;;1.08;0.98;;;7.40;99.90;;;;;;5095848;28;20035;-73
2023/12/20 11:56:07;;;;;;;0.90;0.90;;;7.40;99.90;;;;;;5095515;28;20047;-71
2023/12/20 11:58:33;;;;;;;1.00;0.90;;;6.80;99.90;;;;;;5094578;28;20515;-73
2023/12/20 12:00:59;;;;;;;0.90;0.90;;;7.50;99.90;;;;;;5095876;28;20083;-74
2023/12/20 12:03:24;;;;;;;1.10;1.00;;;6.90;99.90;;;;;;5095130;28;20068;-72
2023/12/20 12:05:50;;;;;;;0.90;0.90;;;6.90;99.90;;;;;;5094701;28;20464;-74
2023/12/20 12:08:17;;;;;;;1.00;1.00;;;6.90;99.90;;;;;;5095343;28;20476;-71
2023/12/20 12:10:43;;;;;;;1.10;1.00;;;6.90;99.90;;;;;;5095365;28;20063;-70
2023/12/20 12:13:09;;;;;;;1.10;1.00;;;6.90;99.90;;;;;;5095323;28;20044;-71
2023/12/20 12:15:36;;;;;;;1.08;1.00;;;7.70;99.90;;;;;;5095387;28;20069;-73
2023/12/20 12:18:02;;;;;;;0.90;0.90;;;7.00;99.90;;;;;;5095009;28;20064;-71
2023/12/20 12:20:27;;;;;;;0.95;0.93;;;7.00;99.90;;;;;;5094135;28;20361;-70
2023/12/20 12:23:04;;;;;;;0.90;0.90;;;7.00;99.90;;;;;;5095319;28;20073;-74
2023/12/20 12:25:31;;;;;;;4.05;2.25;;;7.70;99.90;;;;;;5095014;28;20055;-71
2023/12/20 12:27:58;;;;;;;0.95;0.90;;;7.60;99.90;;;;;;5094894;28;20472;-74
2023/12/20 12:30:25;;;;;;;1.02;1.02;;;7.10;99.90;;;;;;5095050;28;20433;-71
2023/12/20 12:32:52;;;;;;;0.90;0.90;;;7.10;99.90;;;;;;5094949;28;20087;-72
2023/12/20 12:35:18;;;;;;;0.90;0.90;;;7.10;99.90;;;;;;5094938;28;20055;-72
2023/12/20 12:37:43;;;;;;;1.10;1.00;;;7.90;99.90;;;;;;5094773;28;20036;-74
2023/12/20 12:40:17;;;;;;;1.60;1.50;;;7.30;99.90;;;;;;5094229;28;20035;-70
2023/12/20 12:42:44;;;;;;;0.95;0.95;;;8.10;99.90;;;;;;5094642;28;20051;-73
2023/12/20 12:45:13;;;;;;;1.60;1.50;;;7.10;99.90;;;;;;5094572;28;20032;-74
2023/12/20 12:47:39;;;;;;;1.20;1.10;;;7.10;99.90;;;;;;5094964;28;20040;-74
2023/12/20 12:50:05;;;;;;;1.20;1.10;;;7.10;99.90;;;;;;5094709;28;20089;-71
2023/12/20 12:52:31;;;;;;;1.80;1.67;;;7.10;99.90;;;;;;5094570;28;20484;-73
2023/12/20 12:54:57;;;;;;;1.20;1.10;;;7.00;99.90;;;;;;5094708;28;20032;-74